sensor_id;sensor_type;location;lat;lon;timestamp;pressure;altitude;pressure_sealevel;temperature;humidity
63321;BME280;49449;48.800;9.534;2023-03-03T00:00:53;98770.53;;;4.43;36.36
63321;BME280;49449;48.800;9.534;2023-03-03T00:03:23;98772.88;;;4.37;36.29
63321;BME280;49449;48.800;9.534;2023-03-03T00:05:52;98769.56;;;4.29;36.46
63321;BME280;49449;48.800;9.534;2023-03-03T00:08:21;98774.69;;;4.22;36.44
63321;BME280;49449;48.800;9.534;2023-03-03T00:10:49;98763.78;;;4.18;36.38
63321;BME280;49449;48.800;9.534;2023-03-03T00:13:21;98771.78;;;4.17;36.44
63321;BME280;49449;48.800;9.534;2023-03-03T00:15:49;98772.00;;;4.15;36.47
63321;BME280;49449;48.800;9.534;2023-03-03T00:18:25;98778.09;;;4.08;36.69
63321;BME280;49449;48.800;9.534;2023-03-03T00:20:55;98772.88;;;4.08;36.35
63321;BME280;49449;48.800;9.534;2023-03-03T00:23:29;98772.59;;;4.03;36.23
63321;BME280;49449;48.800;9.534;2023-03-03T00:25:57;98772.53;;;3.96;36.34
63321;BME280;49449;48.800;9.534;2023-03-03T00:28:30;98773.75;;;3.85;36.63
63321;BME280;49449;48.800;9.534;2023-03-03T00:31:00;98777.25;;;3.77;36.62
63321;BME280;49449;48.800;9.534;2023-03-03T00:33:30;98780.03;;;3.76;36.88
63321;BME280;49449;48.800;9.534;2023-03-03T00:38:48;98779.88;;;3.77;37.09
63321;BME280;49449;48.800;9.534;2023-03-03T00:41:19;98772.84;;;3.78;36.79
63321;BME280;49449;48.800;9.534;2023-03-03T00:43:51;98783.00;;;3.73;36.93
63321;BME280;49449;48.800;9.534;2023-03-03T00:46:21;98778.91;;;3.78;36.78
63321;BME280;49449;48.800;9.534;2023-03-03T00:48:49;98776.63;;;3.75;37.04
63321;BME280;49449;48.800;9.534;2023-03-03T00:51:25;98770.41;;;3.76;37.20
63321;BME280;49449;48.800;9.534;2023-03-03T00:53:53;98771.75;;;3.72;37.24
63321;BME280;49449;48.800;9.534;2023-03-03T00:56:21;98774.34;;;3.72;36.92
63321;BME280;49449;48.800;9.534;2023-03-03T00:58:50;98781.69;;;3.77;36.87
63321;BME280;49449;48.800;9.534;2023-03-03T01:01:18;98776.81;;;3.74;36.76
63321;BME280;49449;48.800;9.534;2023-03-03T01:03:46;98776.81;;;3.74;36.70
63321;BME280;49449;48.800;9.534;2023-03-03T01:06:14;98781.56;;;3.70;36.68
63321;BME280;49449;48.800;9.534;2023-03-03T01:08:42;98772.28;;;3.68;37.15
63321;BME280;49449;48.800;9.534;2023-03-03T01:11:12;98766.03;;;3.54;36.59
63321;BME280;49449;48.800;9.534;2023-03-03T01:13:44;98769.69;;;3.44;36.93
63321;BME280;49449;48.800;9.534;2023-03-03T01:16:15;98766.25;;;3.44;36.89
63321;BME280;49449;48.800;9.534;2023-03-03T01:18:42;98775.75;;;3.45;37.08
63321;BME280;49449;48.800;9.534;2023-03-03T01:21:11;98774.72;;;3.46;36.90
63321;BME280;49449;48.800;9.534;2023-03-03T01:23:39;98768.03;;;3.52;37.08
63321;BME280;49449;48.800;9.534;2023-03-03T01:26:07;98767.06;;;3.44;37.09
63321;BME280;49449;48.800;9.534;2023-03-03T01:28:34;98772.50;;;3.43;37.16
63321;BME280;49449;48.800;9.534;2023-03-03T01:31:03;98767.06;;;3.44;37.14
63321;BME280;49449;48.800;9.534;2023-03-03T01:33:34;98768.72;;;3.46;37.24
63321;BME280;49449;48.800;9.534;2023-03-03T01:36:03;98777.34;;;3.46;37.35
63321;BME280;49449;48.800;9.534;2023-03-03T01:38:31;98774.72;;;3.46;36.79
63321;BME280;49449;48.800;9.534;2023-03-03T01:41:01;98775.28;;;3.41;38.92
63321;BME280;49449;48.800;9.534;2023-03-03T01:43:30;98780.22;;;3.36;39.29
63321;BME280;49449;48.800;9.534;2023-03-03T01:46:24;98771.91;;;3.33;38.24
63321;BME280;49449;48.800;9.534;2023-03-03T01:48:58;98766.31;;;3.36;37.38
63321;BME280;49449;48.800;9.534;2023-03-03T01:51:30;98776.97;;;3.34;37.20
63321;BME280;49449;48.800;9.534;2023-03-03T01:54:02;98775.88;;;3.20;36.92
63321;BME280;49449;48.800;9.534;2023-03-03T01:56:30;98768.44;;;3.09;36.80
63321;BME280;49449;48.800;9.534;2023-03-03T01:59:00;98767.78;;;3.07;37.62
63321;BME280;49449;48.800;9.534;2023-03-03T02:01:30;98765.19;;;3.07;37.32
63321;BME280;49449;48.800;9.534;2023-03-03T02:04:00;98759.16;;;3.06;37.24
63321;BME280;49449;48.800;9.534;2023-03-03T02:06:32;98757.34;;;3.07;37.20
63321;BME280;49449;48.800;9.534;2023-03-03T02:09:04;98756.59;;;2.98;37.41
63321;BME280;49449;48.800;9.534;2023-03-03T02:11:36;98754.31;;;2.95;37.44
63321;BME280;49449;48.800;9.534;2023-03-03T02:14:04;98751.03;;;3.01;38.04
63321;BME280;49449;48.800;9.534;2023-03-03T02:16:32;98750.00;;;3.11;37.78
63321;BME280;49449;48.800;9.534;2023-03-03T02:19:01;98754.06;;;3.13;37.63
63321;BME280;49449;48.800;9.534;2023-03-03T02:21:30;98751.56;;;3.20;37.61
63321;BME280;49449;48.800;9.534;2023-03-03T02:24:02;98748.25;;;3.26;37.65
63321;BME280;49449;48.800;9.534;2023-03-03T02:26:35;98741.06;;;3.28;37.27
63321;BME280;49449;48.800;9.534;2023-03-03T02:29:04;98751.19;;;3.31;37.61
63321;BME280;49449;48.800;9.534;2023-03-03T02:31:32;98742.34;;;3.32;37.75
63321;BME280;49449;48.800;9.534;2023-03-03T02:33:59;98739.41;;;3.35;37.41
63321;BME280;49449;48.800;9.534;2023-03-03T02:36:28;98736.63;;;3.37;37.61
63321;BME280;49449;48.800;9.534;2023-03-03T02:39:02;98747.06;;;3.37;37.59
63321;BME280;49449;48.800;9.534;2023-03-03T02:41:35;98742.47;;;3.39;37.56
63321;BME280;49449;48.800;9.534;2023-03-03T02:44:07;98744.09;;;3.40;37.34
63321;BME280;49449;48.800;9.534;2023-03-03T02:46:38;98744.09;;;3.40;37.54
63321;BME280;49449;48.800;9.534;2023-03-03T02:49:08;98737.72;;;3.42;37.51
63321;BME280;49449;48.800;9.534;2023-03-03T02:51:36;98742.94;;;3.42;37.80
63321;BME280;49449;48.800;9.534;2023-03-03T02:54:05;98751.59;;;3.43;37.56
63321;BME280;49449;48.800;9.534;2023-03-03T02:56:35;98752.22;;;3.45;37.42
63321;BME280;49449;48.800;9.534;2023-03-03T02:59:03;98766.09;;;3.46;37.56
63321;BME280;49449;48.800;9.534;2023-03-03T03:01:31;98764.28;;;3.46;37.81
63321;BME280;49449;48.800;9.534;2023-03-03T03:04:04;98760.88;;;3.46;37.59
63321;BME280;49449;48.800;9.534;2023-03-03T03:06:34;98755.66;;;3.46;37.25
63321;BME280;49449;48.800;9.534;2023-03-03T03:09:03;98765.13;;;3.47;37.28
63321;BME280;49449;48.800;9.534;2023-03-03T03:11:31;98760.88;;;3.46;37.24
63321;BME280;49449;48.800;9.534;2023-03-03T03:14:02;98765.47;;;3.43;37.51
63321;BME280;49449;48.800;9.534;2023-03-03T03:16:29;98764.47;;;3.44;37.58
63321;BME280;49449;48.800;9.534;2023-03-03T03:18:58;98756.63;;;3.44;37.72
63321;BME280;49449;48.800;9.534;2023-03-03T03:21:26;98763.31;;;3.47;37.51
63321;BME280;49449;48.800;9.534;2023-03-03T03:23:54;98764.75;;;3.50;37.75
63321;BME280;49449;48.800;9.534;2023-03-03T03:26:23;98761.16;;;3.51;37.40
63321;BME280;49449;48.800;9.534;2023-03-03T03:28:51;98759.34;;;3.51;37.51
63321;BME280;49449;48.800;9.534;2023-03-03T03:31:24;98763.78;;;3.51;37.71
63321;BME280;49449;48.800;9.534;2023-03-03T03:33:52;98756.72;;;3.51;37.73
63321;BME280;49449;48.800;9.534;2023-03-03T03:36:20;98753.94;;;3.53;37.85
63321;BME280;49449;48.800;9.534;2023-03-03T03:38:47;98752.34;;;3.52;38.04
63321;BME280;49449;48.800;9.534;2023-03-03T03:41:15;98755.13;;;3.50;38.11
63321;BME280;49449;48.800;9.534;2023-03-03T03:43:43;98758.53;;;3.51;37.94
63321;BME280;49449;48.800;9.534;2023-03-03T03:46:11;98760.53;;;3.49;38.03
63321;BME280;49449;48.800;9.534;2023-03-03T03:48:40;98759.97;;;3.53;38.20
63321;BME280;49449;48.800;9.534;2023-03-03T03:51:09;98766.84;;;3.54;37.67
63321;BME280;49449;48.800;9.534;2023-03-03T03:53:37;98763.06;;;3.57;38.17
63321;BME280;49449;48.800;9.534;2023-03-03T03:56:05;98768.47;;;3.55;38.30
63321;BME280;49449;48.800;9.534;2023-03-03T03:58:33;98770.44;;;3.53;37.90
63321;BME280;49449;48.800;9.534;2023-03-03T04:01:02;98762.25;;;3.56;38.06
63321;BME280;49449;48.800;9.534;2023-03-03T04:03:30;98756.22;;;3.56;37.92
63321;BME280;49449;48.800;9.534;2023-03-03T04:05:59;98758.19;;;3.54;37.81
63321;BME280;49449;48.800;9.534;2023-03-03T04:08:27;98758.19;;;3.54;38.04
63321;BME280;49449;48.800;9.534;2023-03-03T04:10:55;98752.34;;;3.52;37.89
63321;BME280;49449;48.800;9.534;2023-03-03T04:13:23;98766.84;;;3.54;37.99
63321;BME280;49449;48.800;9.534;2023-03-03T04:15:54;98763.25;;;3.55;38.08
63321;BME280;49449;48.800;9.534;2023-03-03T04:18:21;98758.03;;;3.55;38.37
63321;BME280;49449;48.800;9.534;2023-03-03T04:20:49;98761.28;;;3.57;37.91
63321;BME280;49449;48.800;9.534;2023-03-03T04:23:20;98763.72;;;3.59;38.60
63321;BME280;49449;48.800;9.534;2023-03-03T04:25:48;98773.16;;;3.60;38.55
63321;BME280;49449;48.800;9.534;2023-03-03T04:28:16;98774.16;;;3.59;38.22
63321;BME280;49449;48.800;9.534;2023-03-03T04:30:44;98771.34;;;3.60;38.76
63321;BME280;49449;48.800;9.534;2023-03-03T04:33:12;98773.16;;;3.60;38.58
63321;BME280;49449;48.800;9.534;2023-03-03T04:35:39;98770.53;;;3.60;38.32
63321;BME280;49449;48.800;9.534;2023-03-03T04:38:07;98763.88;;;3.57;38.26
63321;BME280;49449;48.800;9.534;2023-03-03T04:40:39;98767.47;;;3.56;38.55
63321;BME280;49449;48.800;9.534;2023-03-03T04:43:07;98766.84;;;3.54;38.61
63321;BME280;49449;48.800;9.534;2023-03-03T04:45:35;98767.66;;;3.55;38.80
63321;BME280;49449;48.800;9.534;2023-03-03T04:48:03;98774.50;;;3.56;38.92
63321;BME280;49449;48.800;9.534;2023-03-03T04:50:30;98778.09;;;3.55;38.54
63321;BME280;49449;48.800;9.534;2023-03-03T04:52:58;98778.09;;;3.55;38.54
63321;BME280;49449;48.800;9.534;2023-03-03T04:55:26;98787.91;;;3.53;38.71
63321;BME280;49449;48.800;9.534;2023-03-03T04:57:55;98790.19;;;3.56;38.35
63321;BME280;49449;48.800;9.534;2023-03-03T05:00:23;98795.06;;;3.59;37.95
63321;BME280;49449;48.800;9.534;2023-03-03T05:02:51;98791.28;;;3.61;38.21
63321;BME280;49449;48.800;9.534;2023-03-03T05:05:21;98792.06;;;3.62;38.17
63321;BME280;49449;48.800;9.534;2023-03-03T05:07:48;98791.91;;;3.63;38.13
63321;BME280;49449;48.800;9.534;2023-03-03T05:10:16;98799.91;;;3.62;38.05
63321;BME280;49449;48.800;9.534;2023-03-03T05:12:44;98797.47;;;3.60;38.24
63321;BME280;49449;48.800;9.534;2023-03-03T05:15:13;98797.94;;;3.64;38.34
63321;BME280;49449;48.800;9.534;2023-03-03T05:17:41;98799.56;;;3.65;37.95
63321;BME280;49449;48.800;9.534;2023-03-03T05:20:10;98787.84;;;3.61;37.84
63321;BME280;49449;48.800;9.534;2023-03-03T05:22:38;98797.38;;;3.54;37.96
63321;BME280;49449;48.800;9.534;2023-03-03T05:25:06;98798.63;;;3.43;37.78
63321;BME280;49449;48.800;9.534;2023-03-03T05:27:35;98790.66;;;3.36;37.50
63321;BME280;49449;48.800;9.534;2023-03-03T05:30:03;98791.97;;;3.32;37.85
63321;BME280;49449;48.800;9.534;2023-03-03T05:32:32;98788.22;;;3.35;38.15
63321;BME280;49449;48.800;9.534;2023-03-03T05:35:00;98800.41;;;3.42;38.38
63321;BME280;49449;48.800;9.534;2023-03-03T05:37:28;98792.22;;;3.46;38.51
63321;BME280;49449;48.800;9.534;2023-03-03T05:39:56;98799.06;;;3.47;38.30
63321;BME280;49449;48.800;9.534;2023-03-03T05:42:24;98800.69;;;3.48;38.41
63321;BME280;49449;48.800;9.534;2023-03-03T05:44:52;98811.78;;;3.50;38.43
63321;BME280;49449;48.800;9.534;2023-03-03T05:47:19;98811.25;;;3.54;38.32
63321;BME280;49449;48.800;9.534;2023-03-03T05:49:49;98815.31;;;3.57;38.46
63321;BME280;49449;48.800;9.534;2023-03-03T05:52:16;98814.34;;;3.58;38.92
63321;BME280;49449;48.800;9.534;2023-03-03T05:54:44;98820.53;;;3.57;39.14
63321;BME280;49449;48.800;9.534;2023-03-03T05:57:12;98819.56;;;3.58;39.20
63321;BME280;49449;48.800;9.534;2023-03-03T05:59:39;98812.63;;;3.65;38.95
63321;BME280;49449;48.800;9.534;2023-03-03T06:02:07;98823.72;;;3.67;39.00
63321;BME280;49449;48.800;9.534;2023-03-03T06:04:35;98827.81;;;3.70;38.68
63321;BME280;49449;48.800;9.534;2023-03-03T06:07:04;98830.41;;;3.70;38.66
63321;BME280;49449;48.800;9.534;2023-03-03T06:09:32;98823.66;;;3.75;38.74
63321;BME280;49449;48.800;9.534;2023-03-03T06:12:00;98830.16;;;3.79;38.69
63321;BME280;49449;48.800;9.534;2023-03-03T06:14:27;98824.31;;;3.77;38.56
63321;BME280;49449;48.800;9.534;2023-03-03T06:16:55;98830.00;;;3.81;38.52
63321;BME280;49449;48.800;9.534;2023-03-03T06:19:24;98832.44;;;3.82;38.00
63321;BME280;49449;48.800;9.534;2023-03-03T06:21:51;98834.06;;;3.84;38.14
63321;BME280;49449;48.800;9.534;2023-03-03T06:24:21;98843.22;;;3.79;38.29
63321;BME280;49449;48.800;9.534;2023-03-03T06:26:50;98848.28;;;3.81;38.46
63321;BME280;49449;48.800;9.534;2023-03-03T06:29:18;98841.72;;;3.85;38.04
63321;BME280;49449;48.800;9.534;2023-03-03T06:31:46;98844.53;;;3.84;38.34
63321;BME280;49449;48.800;9.534;2023-03-03T06:34:13;98851.34;;;3.85;38.40
63321;BME280;49449;48.800;9.534;2023-03-03T06:36:41;98844.16;;;3.87;38.33
63321;BME280;49449;48.800;9.534;2023-03-03T06:39:09;98854.59;;;3.87;38.47
63321;BME280;49449;48.800;9.534;2023-03-03T06:41:38;98846.59;;;3.88;37.92
63321;BME280;49449;48.800;9.534;2023-03-03T06:44:06;98849.50;;;3.93;37.86
63321;BME280;49449;48.800;9.534;2023-03-03T06:46:34;98856.53;;;3.93;38.08
63321;BME280;49449;48.800;9.534;2023-03-03T06:49:02;98860.28;;;3.90;37.97
63321;BME280;49449;48.800;9.534;2023-03-03T06:51:32;98863.09;;;3.89;38.42
63321;BME280;49449;48.800;9.534;2023-03-03T06:54:04;98862.91;;;3.90;38.65
63321;BME280;49449;48.800;9.534;2023-03-03T06:56:35;98863.03;;;3.97;38.45
63321;BME280;49449;48.800;9.534;2023-03-03T06:59:11;98863.66;;;3.99;38.40
63321;BME280;49449;48.800;9.534;2023-03-03T07:01:41;98873.31;;;3.98;40.91
63321;BME280;49449;48.800;9.534;2023-03-03T07:04:14;98870.19;;;4.03;38.86
63321;BME280;49449;48.800;9.534;2023-03-03T07:06:42;98874.41;;;4.04;38.64
63321;BME280;49449;48.800;9.534;2023-03-03T07:09:16;98886.31;;;4.07;38.42
63321;BME280;49449;48.800;9.534;2023-03-03T07:11:46;98881.56;;;4.10;38.87
63321;BME280;49449;48.800;9.534;2023-03-03T07:14:18;98876.78;;;4.14;38.62
63321;BME280;49449;48.800;9.534;2023-03-03T07:16:50;98878.56;;;4.13;38.40
63321;BME280;49449;48.800;9.534;2023-03-03T07:19:23;98887.06;;;4.15;38.65
63321;BME280;49449;48.800;9.534;2023-03-03T07:21:53;98882.47;;;4.17;38.60
63321;BME280;49449;48.800;9.534;2023-03-03T07:24:26;98883.72;;;4.22;38.39
63321;BME280;49449;48.800;9.534;2023-03-03T07:26:58;98884.63;;;4.29;38.01
63321;BME280;49449;48.800;9.534;2023-03-03T07:29:28;98878.88;;;4.33;38.01
63321;BME280;49449;48.800;9.534;2023-03-03T07:31:58;98888.78;;;4.38;37.83
63321;BME280;49449;48.800;9.534;2023-03-03T07:34:33;98885.56;;;4.36;38.23
63321;BME280;49449;48.800;9.534;2023-03-03T07:37:05;98884.41;;;4.38;38.20
63321;BME280;49449;48.800;9.534;2023-03-03T07:39:37;98885.31;;;4.46;37.94
63321;BME280;49449;48.800;9.534;2023-03-03T07:42:16;98895.22;;;4.50;37.83
63321;BME280;49449;48.800;9.534;2023-03-03T07:44:49;98888.03;;;4.52;37.75
63321;BME280;49449;48.800;9.534;2023-03-03T07:47:19;98883.78;;;4.51;38.00
63321;BME280;49449;48.800;9.534;2023-03-03T07:49:51;98889.63;;;4.53;38.07
63321;BME280;49449;48.800;9.534;2023-03-03T07:52:29;98892.69;;;4.57;38.35
63321;BME280;49449;48.800;9.534;2023-03-03T07:54:59;98895.25;;;4.65;38.23
63321;BME280;49449;48.800;9.534;2023-03-03T07:57:35;98892.72;;;4.72;37.86
63321;BME280;49449;48.800;9.534;2023-03-03T08:03:16;98898.75;;;4.87;37.82
63321;BME280;49449;48.800;9.534;2023-03-03T08:05:46;98903.94;;;4.95;37.56
63321;BME280;49449;48.800;9.534;2023-03-03T08:08:27;98903.47;;;5.07;37.97
63321;BME280;49449;48.800;9.534;2023-03-03T08:10:57;98902.84;;;5.20;37.79
63321;BME280;49449;48.800;9.534;2023-03-03T08:13:28;98908.78;;;5.28;37.43
63321;BME280;49449;48.800;9.534;2023-03-03T08:16:19;98909.84;;;5.34;38.23
63321;BME280;49449;48.800;9.534;2023-03-03T08:18:49;98909.00;;;5.48;37.00
63321;BME280;49449;48.800;9.534;2023-03-03T08:21:20;98906.06;;;5.58;37.41
63321;BME280;49449;48.800;9.534;2023-03-03T08:23:49;98913.88;;;5.73;36.89
63321;BME280;49449;48.800;9.534;2023-03-03T08:26:19;98897.91;;;5.89;36.14
63321;BME280;49449;48.800;9.534;2023-03-03T08:28:48;98904.50;;;6.07;36.12
63321;BME280;49449;48.800;9.534;2023-03-03T08:31:17;98910.56;;;6.29;36.42
63321;BME280;49449;48.800;9.534;2023-03-03T08:33:59;98901.00;;;6.43;35.92
63321;BME280;49449;48.800;9.534;2023-03-03T08:36:29;98905.47;;;6.49;35.42
63321;BME280;49449;48.800;9.534;2023-03-03T08:38:59;98899.72;;;6.67;35.64
63321;BME280;49449;48.800;9.534;2023-03-03T08:41:26;98905.91;;;6.88;35.27
63321;BME280;49449;48.800;9.534;2023-03-03T08:43:54;98902.19;;;7.10;34.66
63321;BME280;49449;48.800;9.534;2023-03-03T08:46:23;98899.63;;;7.30;34.83
63321;BME280;49449;48.800;9.534;2023-03-03T08:48:51;98905.13;;;7.49;34.34
63321;BME280;49449;48.800;9.534;2023-03-03T08:51:18;98903.38;;;7.69;34.17
63321;BME280;49449;48.800;9.534;2023-03-03T08:53:46;98901.38;;;7.71;33.08
63321;BME280;49449;48.800;9.534;2023-03-03T08:56:14;98905.44;;;7.74;35.68
63321;BME280;49449;48.800;9.534;2023-03-03T08:58:42;98911.69;;;7.73;34.69
63321;BME280;49449;48.800;9.534;2023-03-03T09:01:28;98916.16;;;7.72;35.59
63321;BME280;49449;48.800;9.534;2023-03-03T09:03:56;98919.38;;;7.74;36.34
63321;BME280;49449;48.800;9.534;2023-03-03T09:06:24;98929.09;;;7.81;34.03
63321;BME280;49449;48.800;9.534;2023-03-03T09:08:52;98918.78;;;7.79;34.07
63321;BME280;49449;48.800;9.534;2023-03-03T09:11:24;98922.22;;;7.73;32.47
63321;BME280;49449;48.800;9.534;2023-03-03T09:13:58;98921.16;;;7.60;32.53
63321;BME280;49449;48.800;9.534;2023-03-03T09:16:35;98925.38;;;7.55;32.73
63321;BME280;49449;48.800;9.534;2023-03-03T09:19:15;98927.94;;;7.41;32.79
63321;BME280;49449;48.800;9.534;2023-03-03T09:21:45;98930.63;;;7.55;32.76
63321;BME280;49449;48.800;9.534;2023-03-03T09:24:21;98932.56;;;7.26;32.03
63321;BME280;49449;48.800;9.534;2023-03-03T09:26:50;98929.13;;;7.32;33.56
63321;BME280;49449;48.800;9.534;2023-03-03T09:29:25;98937.53;;;7.56;33.41
63321;BME280;49449;48.800;9.534;2023-03-03T09:31:56;98940.44;;;7.74;33.15
63321;BME280;49449;48.800;9.534;2023-03-03T09:34:37;98938.41;;;7.76;33.49
63321;BME280;49449;48.800;9.534;2023-03-03T09:37:17;98936.56;;;7.77;33.69
63321;BME280;49449;48.800;9.534;2023-03-03T09:39:48;98935.41;;;7.86;33.20
63321;BME280;49449;48.800;9.534;2023-03-03T09:42:30;98926.28;;;7.89;33.13
63321;BME280;49449;48.800;9.534;2023-03-03T09:45:25;98934.78;;;7.91;33.73
63321;BME280;49449;48.800;9.534;2023-03-03T09:48:08;98930.91;;;7.80;32.30
63321;BME280;49449;48.800;9.534;2023-03-03T09:50:47;98931.09;;;7.58;31.91
63321;BME280;49449;48.800;9.534;2023-03-03T09:53:32;98935.28;;;7.53;32.49
63321;BME280;49449;48.800;9.534;2023-03-03T09:56:06;98938.31;;;7.56;33.13
63321;BME280;49449;48.800;9.534;2023-03-03T09:58:49;98939.03;;;7.72;32.72
63321;BME280;49449;48.800;9.534;2023-03-03T10:01:32;98940.06;;;7.84;32.83
63321;BME280;49449;48.800;9.534;2023-03-03T10:04:23;98942.88;;;7.89;33.13
63321;BME280;49449;48.800;9.534;2023-03-03T10:07:01;98934.59;;;7.92;33.56
63321;BME280;49449;48.800;9.534;2023-03-03T10:09:36;98935.81;;;7.96;34.20
63321;BME280;49449;48.800;9.534;2023-03-03T10:12:12;98935.22;;;8.01;32.50
63321;BME280;49449;48.800;9.534;2023-03-03T10:14:49;98931.56;;;7.95;32.17
63321;BME280;49449;48.800;9.534;2023-03-03T10:17:32;98936.22;;;7.93;31.59
63321;BME280;49449;48.800;9.534;2023-03-03T10:20:21;98936.81;;;7.95;31.94
63321;BME280;49449;48.800;9.534;2023-03-03T10:22:52;98929.13;;;7.94;31.32
63321;BME280;49449;48.800;9.534;2023-03-03T10:25:28;98931.75;;;7.94;31.11
63321;BME280;49449;48.800;9.534;2023-03-03T10:28:38;98932.56;;;8.01;31.21
63321;BME280;49449;48.800;9.534;2023-03-03T10:31:15;98931.38;;;8.04;31.17
63321;BME280;49449;48.800;9.534;2023-03-03T10:33:51;98931.38;;;8.04;31.40
63321;BME280;49449;48.800;9.534;2023-03-03T10:36:33;98933.59;;;8.20;31.26
63321;BME280;49449;48.800;9.534;2023-03-03T10:39:23;98931.19;;;8.32;30.77
63321;BME280;49449;48.800;9.534;2023-03-03T10:42:16;98926.94;;;8.38;30.71
63321;BME280;49449;48.800;9.534;2023-03-03T10:44:59;98928.34;;;8.27;31.25
63321;BME280;49449;48.800;9.534;2023-03-03T10:50:23;98927.31;;;8.48;31.32
63321;BME280;49449;48.800;9.534;2023-03-03T10:53:06;98919.41;;;8.61;31.14
63321;BME280;49449;48.800;9.534;2023-03-03T10:55:45;98922.25;;;8.80;31.03
63321;BME280;49449;48.800;9.534;2023-03-03T11:01:22;98918.09;;;9.04;30.81
63321;BME280;49449;48.800;9.534;2023-03-03T11:06:51;98921.22;;;9.71;29.72
63321;BME280;49449;48.800;9.534;2023-03-03T11:09:38;98928.59;;;10.01;29.54
63321;BME280;49449;48.800;9.534;2023-03-03T11:12:27;98922.34;;;10.20;28.45
63321;BME280;49449;48.800;9.534;2023-03-03T11:15:10;98923.94;;;10.28;28.96
63321;BME280;49449;48.800;9.534;2023-03-03T11:17:50;98922.72;;;10.24;29.41
63321;BME280;49449;48.800;9.534;2023-03-03T11:20:30;98929.59;;;10.50;29.30
63321;BME280;49449;48.800;9.534;2023-03-03T11:23:07;98931.72;;;10.67;28.87
63321;BME280;49449;48.800;9.534;2023-03-03T11:25:45;98926.50;;;10.78;29.76
63321;BME280;49449;48.800;9.534;2023-03-03T11:28:28;98938.00;;;10.66;28.72
63321;BME280;49449;48.800;9.534;2023-03-03T11:31:08;98929.44;;;10.70;28.46
63321;BME280;49449;48.800;9.534;2023-03-03T11:33:43;98926.84;;;10.63;27.96
63321;BME280;49449;48.800;9.534;2023-03-03T11:36:20;98930.56;;;10.56;27.66
63321;BME280;49449;48.800;9.534;2023-03-03T11:38:56;98921.44;;;10.33;27.91
63321;BME280;49449;48.800;9.534;2023-03-03T11:41:35;98921.88;;;10.05;27.78
63321;BME280;49449;48.800;9.534;2023-03-03T11:44:10;98910.28;;;10.06;28.13
63321;BME280;49449;48.800;9.534;2023-03-03T11:46:42;98915.38;;;10.01;27.62
63321;BME280;49449;48.800;9.534;2023-03-03T11:49:15;98907.66;;;9.67;27.96
63321;BME280;49449;48.800;9.534;2023-03-03T11:51:50;98903.41;;;9.66;28.28
63321;BME280;49449;48.800;9.534;2023-03-03T11:54:23;98907.00;;;9.85;28.02
63321;BME280;49449;48.800;9.534;2023-03-03T11:57:04;98901.63;;;9.92;27.99
63321;BME280;49449;48.800;9.534;2023-03-03T11:59:44;98894.28;;;10.01;27.16
63321;BME280;49449;48.800;9.534;2023-03-03T12:02:24;98883.03;;;9.80;27.57
63321;BME280;49449;48.800;9.534;2023-03-03T12:04:59;98893.41;;;9.75;28.07
63321;BME280;49449;48.800;9.534;2023-03-03T12:07:38;98882.69;;;9.70;28.85
63321;BME280;49449;48.800;9.534;2023-03-03T12:10:18;98878.72;;;9.93;29.96
63321;BME280;49449;48.800;9.534;2023-03-03T12:12:57;98877.28;;;10.15;29.10
63321;BME280;49449;48.800;9.534;2023-03-03T12:15:34;98875.22;;;10.42;28.49
63321;BME280;49449;48.800;9.534;2023-03-03T12:18:12;98873.44;;;10.61;28.65
63321;BME280;49449;48.800;9.534;2023-03-03T12:20:51;98871.09;;;10.72;27.23
63321;BME280;49449;48.800;9.534;2023-03-03T12:23:45;98871.09;;;10.90;29.02
63321;BME280;49449;48.800;9.534;2023-03-03T12:26:24;98869.75;;;10.99;26.87
63321;BME280;49449;48.800;9.534;2023-03-03T12:29:04;98864.19;;;10.89;26.99
63321;BME280;49449;48.800;9.534;2023-03-03T12:31:40;98861.63;;;11.01;26.96
63321;BME280;49449;48.800;9.534;2023-03-03T12:34:19;98858.53;;;11.04;26.11
63321;BME280;49449;48.800;9.534;2023-03-03T12:37:13;98859.50;;;10.91;26.26
63321;BME280;49449;48.800;9.534;2023-03-03T12:39:52;98851.25;;;10.99;25.90
63321;BME280;49449;48.800;9.534;2023-03-03T12:42:33;98860.78;;;10.82;25.79
63321;BME280;49449;48.800;9.534;2023-03-03T12:45:17;98862.97;;;10.48;26.39
63321;BME280;49449;48.800;9.534;2023-03-03T12:47:54;98863.19;;;10.28;26.50
63321;BME280;49449;48.800;9.534;2023-03-03T12:50:34;98853.94;;;10.19;26.52
63321;BME280;49449;48.800;9.534;2023-03-03T12:53:09;98855.53;;;10.20;26.52
63321;BME280;49449;48.800;9.534;2023-03-03T12:55:48;98856.81;;;10.36;26.85
63321;BME280;49449;48.800;9.534;2023-03-03T12:58:28;98849.34;;;10.51;26.55
63321;BME280;49449;48.800;9.534;2023-03-03T13:01:10;98844.66;;;10.53;27.26
63321;BME280;49449;48.800;9.534;2023-03-03T13:03:43;98853.25;;;10.86;27.45
63321;BME280;49449;48.800;9.534;2023-03-03T13:06:27;98846.59;;;11.13;29.01
63321;BME280;49449;48.800;9.534;2023-03-03T13:09:07;98849.66;;;11.29;27.49
63321;BME280;49449;48.800;9.534;2023-03-03T13:11:48;98847.16;;;11.34;26.89
63321;BME280;49449;48.800;9.534;2023-03-03T13:14:25;98842.22;;;11.37;27.08
63321;BME280;49449;48.800;9.534;2023-03-03T13:17:03;98842.88;;;11.33;27.66
63321;BME280;49449;48.800;9.534;2023-03-03T13:19:38;98847.44;;;11.44;25.87
63321;BME280;49449;48.800;9.534;2023-03-03T13:22:10;98847.06;;;11.41;26.04
63321;BME280;49449;48.800;9.534;2023-03-03T13:24:53;98842.31;;;11.31;25.97
63321;BME280;49449;48.800;9.534;2023-03-03T13:27:24;98836.22;;;11.30;26.99
63321;BME280;49449;48.800;9.534;2023-03-03T13:29:58;98842.88;;;11.33;27.08
63321;BME280;49449;48.800;9.534;2023-03-03T13:32:33;98839.41;;;11.21;26.23
63321;BME280;49449;48.800;9.534;2023-03-03T13:35:16;98839.22;;;11.04;26.57
63321;BME280;49449;48.800;9.534;2023-03-03T13:37:48;98832.38;;;11.14;27.38
63321;BME280;49449;48.800;9.534;2023-03-03T13:40:22;98831.81;;;11.24;27.64
63321;BME280;49449;48.800;9.534;2023-03-03T13:42:55;98826.00;;;11.04;26.19
63321;BME280;49449;48.800;9.534;2023-03-03T13:45:29;98824.97;;;11.05;26.15
63321;BME280;49449;48.800;9.534;2023-03-03T13:48:06;98827.78;;;11.22;26.47
63321;BME280;49449;48.800;9.534;2023-03-03T13:50:44;98826.00;;;11.34;26.70
63321;BME280;49449;48.800;9.534;2023-03-03T13:53:31;98817.34;;;11.27;26.27